Time;durP1;ratioP1;P1;durP2;ratioP2;P2;SDS_P1;SDS_P2;PMS_P1;PMS_P2;Temp;Humidity;BMP_temperature;BMP_pressure;BME280_temperature;BME280_humidity;BME280_pressure;Samples;Min_cycle;Max_cycle;Signal;HPM_P1;HPM_P2
2023/01/24 00:00:10;;;;;;;21.50;11.70;;;3.10;99.90;;;;;;5044669;28;20086;-80
2023/01/24 00:02:36;;;;;;;21.50;11.88;;;3.10;99.90;;;;;;5044445;28;20033;-80
2023/01/24 00:05:03;;;;;;;20.50;11.85;;;3.00;99.90;;;;;;5044916;28;20043;-80
2023/01/24 00:07:28;;;;;;;22.63;12.95;;;3.10;99.90;;;;;;5045153;28;20187;-80
2023/01/24 00:09:54;;;;;;;21.33;12.00;;;3.00;99.90;;;;;;5045430;28;20044;-80
2023/01/24 00:12:19;;;;;;;20.45;12.07;;;3.10;99.90;;;;;;5044831;28;20090;-80
2023/01/24 00:14:45;;;;;;;26.13;13.07;;;3.00;99.90;;;;;;5063217;28;20033;-80
2023/01/24 00:17:11;;;;;;;23.05;12.85;;;3.10;99.90;;;;;;5048860;28;20033;-80
2023/01/24 00:19:36;;;;;;;25.85;12.90;;;3.00;99.90;;;;;;5048703;28;20040;-80
2023/01/24 00:22:03;;;;;;;22.83;12.68;;;3.10;99.90;;;;;;5039313;28;20059;-80
2023/01/24 00:24:29;;;;;;;25.77;13.43;;;3.00;99.90;;;;;;5063788;28;20048;-80
2023/01/24 00:26:55;;;;;;;25.73;13.80;;;3.00;99.90;;;;;;5042948;28;20583;-80
2023/01/24 00:29:21;;;;;;;25.23;13.85;;;3.00;99.90;;;;;;5046498;28;20116;-80
2023/01/24 00:31:46;;;;;;;23.83;13.45;;;3.00;99.90;;;;;;5048610;28;20480;-80
2023/01/24 00:34:12;;;;;;;24.65;13.52;;;3.00;99.90;;;;;;5042631;28;20480;-80
2023/01/24 00:36:37;;;;;;;25.67;13.65;;;3.00;99.90;;;;;;5049506;28;20052;-81
2023/01/24 00:39:03;;;;;;;22.13;12.40;;;3.00;99.90;;;;;;5043066;28;20140;-81
2023/01/24 00:41:29;;;;;;;25.20;13.32;;;3.00;99.90;;;;;;5026023;28;20670;-80
2023/01/24 00:43:55;;;;;;;27.92;14.15;;;3.00;99.90;;;;;;5033498;28;20056;-80
2023/01/24 00:46:21;;;;;;;27.70;14.00;;;3.00;99.90;;;;;;5043244;28;20052;-80
2023/01/24 00:48:46;;;;;;;26.10;14.25;;;3.00;99.90;;;;;;5047660;28;20037;-81
2023/01/24 00:51:12;;;;;;;26.45;13.20;;;3.00;99.90;;;;;;5048760;28;20087;-80
2023/01/24 00:53:37;;;;;;;25.30;12.10;;;3.00;99.90;;;;;;5041048;28;20399;-80
2023/01/24 00:56:03;;;;;;;26.38;13.63;;;3.00;99.90;;;;;;5031843;28;20052;-80
2023/01/24 00:58:29;;;;;;;24.20;13.73;;;3.00;99.90;;;;;;5048759;28;20370;-80
2023/01/24 01:00:56;;;;;;;25.58;13.30;;;3.00;99.90;;;;;;5048221;28;20068;-81
2023/01/24 01:03:22;;;;;;;26.35;13.63;;;3.00;99.90;;;;;;5048056;28;20064;-80
2023/01/24 01:05:48;;;;;;;25.45;14.52;;;3.00;99.90;;;;;;5044896;28;20493;-81
2023/01/24 01:08:14;;;;;;;27.25;12.82;;;3.00;99.90;;;;;;5034496;28;20041;-80
2023/01/24 01:10:40;;;;;;;28.27;13.80;;;3.00;99.90;;;;;;5030960;28;20051;-80
2023/01/24 01:13:06;;;;;;;26.52;14.57;;;3.00;99.90;;;;;;5043294;28;20041;-80
2023/01/24 01:15:32;;;;;;;25.33;13.93;;;3.00;99.90;;;;;;5029922;28;20049;-80
2023/01/24 01:17:58;;;;;;;28.13;15.45;;;3.00;99.90;;;;;;5044439;28;20076;-80
2023/01/24 01:20:24;;;;;;;27.38;14.85;;;3.00;99.90;;;;;;5041964;28;20079;-80
2023/01/24 01:22:53;;;;;;;25.55;13.77;;;3.00;99.90;;;;;;5042675;28;20049;-80
2023/01/24 01:25:19;;;;;;;26.83;14.90;;;3.00;99.90;;;;;;5043654;28;20044;-80
2023/01/24 01:27:45;;;;;;;31.73;15.68;;;3.00;99.90;;;;;;5045837;28;20036;-80
2023/01/24 01:30:11;;;;;;;30.98;14.65;;;3.00;99.90;;;;;;5030161;28;20488;-80
2023/01/24 01:32:36;;;;;;;25.48;14.23;;;3.00;99.90;;;;;;5039766;28;20041;-80
2023/01/24 01:35:02;;;;;;;31.08;15.57;;;3.00;99.90;;;;;;5060281;28;20042;-80
2023/01/24 01:37:27;;;;;;;31.15;16.20;;;3.00;99.90;;;;;;5044718;28;20033;-80
2023/01/24 01:39:53;;;;;;;23.73;14.30;;;3.00;99.90;;;;;;5036099;28;20038;-80
2023/01/24 01:42:19;;;;;;;28.15;14.77;;;3.00;99.90;;;;;;5025806;28;20048;-80
2023/01/24 01:44:49;;;;;;;30.40;16.10;;;3.00;99.90;;;;;;5048740;28;20476;-80
2023/01/24 01:47:20;;;;;;;27.20;14.60;;;3.00;99.90;;;;;;5042875;28;20045;-80
2023/01/24 01:50:14;;;;;;;29.08;15.00;;;3.00;99.90;;;;;;5042341;28;20064;-80
2023/01/24 01:52:42;;;;;;;27.13;14.90;;;3.00;99.90;;;;;;5044518;28;20049;-80
2023/01/24 01:55:20;;;;;;;27.52;14.98;;;3.00;99.90;;;;;;5048310;28;20072;-80
2023/01/24 01:57:48;;;;;;;28.75;15.82;;;3.00;99.90;;;;;;5044204;28;20037;-80
2023/01/24 02:00:17;;;;;;;27.90;15.40;;;3.00;99.90;;;;;;5045094;28;20123;-80
2023/01/24 02:02:54;;;;;;;31.27;15.35;;;3.00;99.90;;;;;;5046334;28;20040;-80
2023/01/24 02:05:25;;;;;;;28.80;15.88;;;3.00;99.90;;;;;;5045993;28;20028;-80
2023/01/24 02:08:02;;;;;;;33.97;16.85;;;3.00;99.90;;;;;;5043205;28;20041;-80
2023/01/24 02:13:12;;;;;;;;;;;3.00;99.90;;;;;;5048624;28;20083;-80
2023/01/24 02:18:23;;;;;;;28.52;15.30;;;3.00;99.90;;;;;;5044519;28;20037;-80
2023/01/24 02:20:49;;;;;;;26.50;15.05;;;3.60;99.90;;;;;;5055661;28;20479;-80
2023/01/24 02:23:32;;;;;;;29.00;15.48;;;2.70;99.90;;;;;;5045159;28;20044;-80
2023/01/24 02:26:15;;;;;;;29.25;15.25;;;3.00;99.90;;;;;;5047363;28;20088;-80
2023/01/24 02:28:59;;;;;;;28.45;15.57;;;3.00;99.90;;;;;;5058392;28;20119;-80
2023/01/24 02:31:25;;;;;;;30.77;15.27;;;3.00;99.90;;;;;;5045292;28;20054;-80
2023/01/24 02:33:51;;;;;;;29.17;15.93;;;3.00;99.90;;;;;;5041748;28;20291;-80
2023/01/24 02:36:19;;;;;;;26.00;14.10;;;3.00;99.90;;;;;;5046927;28;20033;-80
2023/01/24 02:38:52;;;;;;;27.40;14.90;;;3.30;99.90;;;;;;5025676;28;20076;-80
2023/01/24 02:41:24;;;;;;;28.60;15.60;;;3.00;99.90;;;;;;5047114;28;20061;-81
2023/01/24 02:43:52;;;;;;;25.08;15.05;;;2.90;99.90;;;;;;5039561;28;20030;-80
2023/01/24 02:46:18;;;;;;;28.02;15.23;;;3.00;99.90;;;;;;5041492;28;20112;-80
2023/01/24 02:48:43;;;;;;;29.25;14.88;;;3.00;99.90;;;;;;5039537;28;20562;-80
2023/01/24 02:53:54;;;;;;;26.98;14.70;;;2.90;99.90;;;;;;5040931;28;20479;-80
2023/01/24 02:59:04;;;;;;;28.75;15.88;;;2.90;99.90;;;;;;5033534;28;20033;-79
2023/01/24 03:01:30;;;;;;;30.60;15.70;;;3.00;99.90;;;;;;5035072;28;20391;-80
2023/01/24 03:03:57;;;;;;;31.42;14.88;;;2.90;99.90;;;;;;5033724;28;20468;-80
2023/01/24 03:06:23;;;;;;;31.25;15.23;;;2.90;99.90;;;;;;5061539;28;20041;-80
2023/01/24 03:08:49;;;;;;;28.92;15.00;;;3.00;99.90;;;;;;5045610;28;20036;-80
2023/01/24 03:11:14;;;;;;;27.90;15.85;;;3.00;99.90;;;;;;5044115;28;20072;-80
2023/01/24 03:35:37;;;;;;;30.77;15.38;;;2.90;99.90;;;;;;5036227;28;20121;-80
2023/01/24 03:40:51;;;;;;;32.38;15.73;;;2.90;99.90;;;;;;5044465;28;20052;-81
2023/01/24 03:43:16;;;;;;;30.13;14.38;;;2.90;99.90;;;;;;5044303;28;20041;-80
2023/01/24 03:45:42;;;;;;;25.27;14.27;;;2.90;99.90;;;;;;5038734;28;20407;-80
2023/01/24 03:48:12;;;;;;;25.88;13.27;;;3.00;99.90;;;;;;5035819;28;20511;-80
2023/01/24 03:53:27;;;;;;;29.20;14.75;;;3.00;99.90;;;;;;5042184;28;20431;-80
2023/01/24 03:55:55;;;;;;;28.67;14.90;;;3.00;99.90;;;;;;5041933;28;20055;-80
2023/01/24 03:58:21;;;;;;;27.15;15.27;;;3.80;99.90;;;;;;5060438;28;20040;-80
2023/01/24 04:00:47;;;;;;;24.45;13.75;;;3.00;99.90;;;;;;5042557;28;20037;-80
2023/01/24 04:03:13;;;;;;;26.73;13.60;;;2.90;99.90;;;;;;5039450;28;20040;-80
2023/01/24 04:05:39;;;;;;;24.35;13.23;;;3.00;99.90;;;;;;5029995;28;20060;-80
2023/01/24 04:08:04;;;;;;;22.40;12.60;;;2.90;99.90;;;;;;5040532;28;20120;-80
2023/01/24 04:10:31;;;;;;;21.70;12.65;;;3.20;99.90;;;;;;5036065;28;20044;-80
2023/01/24 04:12:57;;;;;;;23.67;12.32;;;2.90;99.90;;;;;;5045016;28;20052;-80
2023/01/24 04:15:25;;;;;;;22.85;12.75;;;2.90;99.90;;;;;;5045785;28;20037;-80
2023/01/24 04:17:56;;;;;;;25.10;13.45;;;3.00;99.90;;;;;;5043212;28;20048;-80
2023/01/24 04:20:26;;;;;;;20.42;11.45;;;3.00;99.90;;;;;;5041696;28;20058;-80
2023/01/24 04:22:52;;;;;;;22.63;12.98;;;3.00;99.90;;;;;;5036219;28;20053;-81
2023/01/24 04:25:18;;;;;;;20.98;11.63;;;3.00;99.90;;;;;;5049829;28;20068;-80
2023/01/24 04:27:44;;;;;;;19.95;11.27;;;3.00;99.90;;;;;;5048981;28;20036;-80
2023/01/24 04:30:12;;;;;;;21.50;12.15;;;2.90;99.90;;;;;;5044366;28;20135;-80
2023/01/24 04:32:38;;;;;;;20.65;12.35;;;2.90;99.90;;;;;;5046888;28;20445;-80
2023/01/24 04:35:04;;;;;;;19.80;11.52;;;2.90;99.90;;;;;;5029973;28;20045;-80
2023/01/24 04:37:31;;;;;;;22.92;11.55;;;2.90;99.90;;;;;;5039300;28;20495;-80
2023/01/24 04:39:57;;;;;;;24.15;12.82;;;2.90;99.90;;;;;;5049798;28;20124;-80
2023/01/24 04:42:23;;;;;;;19.40;11.90;;;4.10;99.90;;;;;;5049737;28;20120;-80
2023/01/24 04:44:48;;;;;;;21.45;11.98;;;2.90;99.90;;;;;;5042584;28;20076;-80
2023/01/24 04:47:14;;;;;;;23.67;12.95;;;2.90;99.90;;;;;;5039498;28;20033;-80
2023/01/24 04:49:42;;;;;;;22.80;12.82;;;2.90;99.90;;;;;;5040001;28;20573;-80
2023/01/24 04:52:11;;;;;;;23.25;12.70;;;2.90;99.90;;;;;;5057171;28;20095;-80
2023/01/24 04:54:37;;;;;;;24.38;13.45;;;2.90;99.90;;;;;;5055228;28;20120;-80
2023/01/24 04:57:03;;;;;;;23.48;12.73;;;3.00;99.90;;;;;;5044017;28;20053;-80
2023/01/24 04:59:28;;;;;;;21.67;11.95;;;2.90;99.90;;;;;;5037761;28;20099;-80
2023/01/24 05:01:54;;;;;;;23.85;13.65;;;2.90;99.90;;;;;;5034782;28;20044;-80
2023/01/24 05:04:19;;;;;;;24.85;13.75;;;3.00;99.90;;;;;;5044965;28;20539;-80
2023/01/24 05:06:45;;;;;;;23.67;12.95;;;3.00;99.90;;;;;;5045586;28;20045;-80
2023/01/24 05:09:11;;;;;;;23.17;12.95;;;3.00;99.90;;;;;;5057919;28;20498;-80
2023/01/24 05:11:37;;;;;;;21.35;12.73;;;3.00;99.90;;;;;;5047158;28;20040;-80
2023/01/24 05:14:02;;;;;;;22.92;12.82;;;3.00;99.90;;;;;;5046368;28;20041;-80
2023/01/24 05:16:28;;;;;;;24.30;13.20;;;3.00;99.90;;;;;;5048786;28;20044;-80
2023/01/24 05:18:53;;;;;;;23.65;12.90;;;3.00;99.90;;;;;;5041732;28;20040;-80
2023/01/24 05:21:19;;;;;;;24.90;14.63;;;3.00;99.90;;;;;;5048064;28;20052;-80
2023/01/24 05:23:52;;;;;;;20.40;12.20;;;3.00;99.90;;;;;;5042699;28;20514;-80
2023/01/24 05:26:23;;;;;;;25.38;14.45;;;3.00;99.90;;;;;;5024374;28;20044;-80
2023/01/24 05:28:50;;;;;;;21.75;13.05;;;2.90;99.90;;;;;;5042484;28;20123;-80
2023/01/24 05:31:16;;;;;;;22.90;12.88;;;2.90;99.90;;;;;;5044849;28;20117;-80
2023/01/24 05:33:42;;;;;;;27.27;12.70;;;2.90;99.90;;;;;;5055654;28;20047;-80
2023/01/24 05:36:11;;;;;;;23.63;12.13;;;2.90;99.90;;;;;;5044704;28;20484;-80
2023/01/24 05:38:37;;;;;;;20.25;11.85;;;2.90;99.90;;;;;;5046233;28;20045;-80
2023/01/24 05:41:05;;;;;;;20.60;11.25;;;2.90;99.90;;;;;;5044233;28;21011;-80
2023/01/24 05:43:32;;;;;;;24.27;12.38;;;2.90;99.90;;;;;;5045649;28;20045;-80
2023/01/24 05:46:05;;;;;;;21.42;12.18;;;2.90;99.90;;;;;;5046341;28;20483;-80
2023/01/24 05:48:31;;;;;;;23.70;13.35;;;2.90;99.90;;;;;;5045203;28;20120;-80
2023/01/24 05:51:06;;;;;;;23.85;13.52;;;2.90;99.90;;;;;;5041835;28;20047;-80
2023/01/24 05:53:34;;;;;;;22.98;12.48;;;2.90;99.90;;;;;;5042400;28;20042;-81
2023/01/24 05:56:02;;;;;;;24.10;12.90;;;4.00;99.90;;;;;;5029269;28;20120;-80
2023/01/24 05:58:31;;;;;;;22.17;12.68;;;2.90;99.90;;;;;;5053022;28;20504;-80
2023/01/24 06:00:57;;;;;;;22.92;13.63;;;3.00;99.90;;;;;;5029459;28;20111;-80
2023/01/24 06:03:23;;;;;;;24.25;12.95;;;2.80;99.90;;;;;;5032749;28;20037;-81
2023/01/24 06:05:53;;;;;;;23.65;12.23;;;2.90;99.90;;;;;;5024100;28;20064;-80
2023/01/24 06:08:20;;;;;;;21.38;12.30;;;2.90;99.90;;;;;;5048823;28;20536;-80
2023/01/24 06:10:49;;;;;;;18.63;11.23;;;2.90;99.90;;;;;;5062560;28;20040;-81
2023/01/24 06:13:15;;;;;;;19.48;10.85;;;2.90;99.90;;;;;;5037897;28;20040;-80
2023/01/24 06:15:41;;;;;;;17.75;10.52;;;2.90;99.90;;;;;;5048606;28;20056;-81
2023/01/24 06:18:12;;;;;;;20.85;10.95;;;2.90;99.90;;;;;;5046548;28;20083;-80
2023/01/24 06:20:41;;;;;;;23.77;13.75;;;2.80;99.90;;;;;;5042905;28;20049;-81
2023/01/24 06:23:12;;;;;;;20.13;11.07;;;2.90;99.90;;;;;;5028872;28;20053;-81
2023/01/24 06:25:38;;;;;;;17.67;10.55;;;2.90;99.90;;;;;;5046091;28;20072;-80
2023/01/24 06:28:04;;;;;;;20.58;10.45;;;2.90;99.90;;;;;;5059171;28;20151;-80
2023/01/24 06:30:29;;;;;;;18.70;10.35;;;2.90;99.90;;;;;;5044566;28;20037;-80
2023/01/24 06:33:19;;;;;;;18.38;9.60;;;2.90;99.90;;;;;;5049127;28;20047;-80
2023/01/24 06:36:05;;;;;;;17.40;10.70;;;2.90;99.90;;;;;;5043377;28;20140;-80
2023/01/24 06:38:31;;;;;;;20.20;10.90;;;2.90;99.90;;;;;;5043015;28;20412;-80
2023/01/24 06:41:00;;;;;;;17.45;9.95;;;2.90;99.90;;;;;;5040575;28;20072;-79
2023/01/24 06:43:26;;;;;;;20.17;10.43;;;2.90;99.90;;;;;;5047649;28;20057;-80
2023/01/24 06:45:51;;;;;;;17.38;9.65;;;2.90;99.90;;;;;;5048376;28;20087;-80
2023/01/24 06:48:17;;;;;;;18.35;10.40;;;2.90;99.90;;;;;;5031345;28;20045;-80
2023/01/24 06:50:43;;;;;;;18.02;10.15;;;2.90;99.90;;;;;;5044295;28;20056;-82
2023/01/24 06:53:09;;;;;;;20.20;11.15;;;2.90;99.90;;;;;;5043709;28;20075;-80
2023/01/24 06:55:35;;;;;;;19.50;10.48;;;2.90;99.90;;;;;;5042076;28;20048;-81
2023/01/24 06:58:03;;;;;;;19.17;10.48;;;2.90;99.90;;;;;;5046616;28;20044;-81
2023/01/24 07:00:29;;;;;;;21.10;11.10;;;2.90;99.90;;;;;;5037507;28;20090;-83
2023/01/24 07:02:59;;;;;;;19.52;10.57;;;2.90;99.90;;;;;;5041927;28;20036;-80
2023/01/24 07:05:26;;;;;;;17.25;9.48;;;2.80;99.90;;;;;;5044346;28;20044;-82
2023/01/24 07:07:53;;;;;;;18.25;10.35;;;2.80;99.90;;;;;;5022284;28;20040;-81
2023/01/24 07:10:19;;;;;;;17.52;9.73;;;2.80;99.90;;;;;;5029786;28;20029;-82
2023/01/24 07:12:44;;;;;;;16.60;9.45;;;2.80;99.90;;;;;;5045831;28;20375;-82
2023/01/24 07:15:10;;;;;;;16.52;9.55;;;2.80;99.90;;;;;;5042786;28;20045;-82
2023/01/24 07:17:36;;;;;;;17.77;10.20;;;2.80;99.90;;;;;;5048891;28;20037;-80
2023/01/24 07:20:02;;;;;;;19.05;10.23;;;2.80;99.90;;;;;;5059862;28;20146;-81
2023/01/24 07:22:28;;;;;;;17.13;10.20;;;2.80;99.90;;;;;;5045820;28;20049;-81
2023/01/24 07:24:55;;;;;;;18.15;10.25;;;2.80;99.90;;;;;;5041272;28;20479;-82
2023/01/24 07:27:21;;;;;;;19.20;9.93;;;2.80;99.90;;;;;;5046412;28;20114;-83
2023/01/24 07:29:47;;;;;;;18.52;10.68;;;2.80;99.90;;;;;;5041611;28;20476;-79
2023/01/24 07:32:12;;;;;;;16.70;9.95;;;2.90;99.90;;;;;;5039957;28;20125;-80
2023/01/24 07:34:38;;;;;;;19.15;10.38;;;2.80;99.90;;;;;;5042284;28;20447;-80
2023/01/24 07:37:06;;;;;;;18.15;10.73;;;2.80;99.90;;;;;;5047358;28;20044;-80
2023/01/24 07:39:31;;;;;;;19.08;10.45;;;2.80;99.90;;;;;;5036002;28;20045;-80
2023/01/24 07:41:57;;;;;;;18.90;10.70;;;2.90;99.90;;;;;;5046787;28;20071;-80
2023/01/24 07:44:23;;;;;;;20.13;10.10;;;2.90;99.90;;;;;;5030213;28;20052;-80
2023/01/24 07:46:48;;;;;;;17.98;10.18;;;2.90;99.90;;;;;;5044437;28;20029;-80
2023/01/24 07:49:14;;;;;;;19.65;10.25;;;2.90;99.90;;;;;;5044541;28;20033;-80
2023/01/24 07:51:40;;;;;;;19.08;9.98;;;2.90;99.90;;;;;;5048535;28;20402;-80
2023/01/24 07:54:06;;;;;;;19.52;11.52;;;2.80;99.90;;;;;;5047401;28;20075;-80
2023/01/24 07:56:31;;;;;;;17.00;9.75;;;2.90;99.90;;;;;;5039646;28;20080;-80
2023/01/24 07:58:58;;;;;;;19.05;10.88;;;2.80;99.90;;;;;;5047881;28;20135;-80
2023/01/24 08:01:25;;;;;;;19.27;11.52;;;2.90;99.90;;;;;;5041286;28;20549;-80
2023/01/24 08:03:55;;;;;;;20.73;11.30;;;2.90;99.90;;;;;;5050894;28;20056;-80
2023/01/24 08:06:20;;;;;;;18.85;10.57;;;2.80;99.90;;;;;;5051820;28;20410;-80
2023/01/24 08:08:46;;;;;;;17.27;10.75;;;3.20;99.90;;;;;;5045828;28;20044;-80
2023/01/24 08:11:15;;;;;;;18.45;10.40;;;2.80;99.90;;;;;;5037856;28;20044;-80
2023/01/24 08:13:41;;;;;;;18.95;11.40;;;2.80;99.90;;;;;;5052311;28;20045;-80
2023/01/24 08:16:07;;;;;;;19.42;11.35;;;2.90;99.90;;;;;;5038907;28;20059;-80
2023/01/24 08:18:33;;;;;;;21.00;11.07;;;2.90;99.90;;;;;;5038365;28;20384;-80
2023/01/24 08:20:59;;;;;;;20.27;11.55;;;2.90;99.90;;;;;;5040169;28;20060;-80
2023/01/24 08:23:25;;;;;;;18.45;10.93;;;2.90;99.90;;;;;;5050505;28;20467;-80
2023/01/24 08:25:50;;;;;;;19.75;11.38;;;2.90;99.90;;;;;;5048876;28;20047;-80
2023/01/24 08:28:16;;;;;;;19.48;11.07;;;2.90;99.90;;;;;;5050075;28;20081;-80
2023/01/24 08:30:42;;;;;;;18.52;11.40;;;2.90;99.90;;;;;;5047735;28;20088;-79
2023/01/24 08:33:13;;;;;;;20.23;11.50;;;2.90;99.90;;;;;;5049306;28;20044;-80
2023/01/24 08:35:39;;;;;;;19.15;12.23;;;2.90;99.90;;;;;;5051381;28;20052;-80
2023/01/24 08:38:04;;;;;;;19.38;11.15;;;2.90;99.90;;;;;;5049782;28;20041;-80
2023/01/24 08:40:30;;;;;;;20.52;12.38;;;2.90;99.90;;;;;;5051318;28;20052;-80
2023/01/24 08:43:00;;;;;;;21.55;13.23;;;2.90;99.90;;;;;;5050496;28;20064;-80
2023/01/24 08:45:25;;;;;;;20.42;12.95;;;2.90;99.90;;;;;;5049743;28;20049;-80
2023/01/24 08:47:52;;;;;;;21.67;13.18;;;2.90;99.90;;;;;;5051515;28;20036;-80
2023/01/24 08:50:19;;;;;;;24.55;13.82;;;2.90;99.90;;;;;;5045449;28;20029;-80
2023/01/24 08:52:45;;;;;;;22.45;14.27;;;2.90;99.90;;;;;;5037712;28;20112;-80
2023/01/24 08:55:11;;;;;;;22.00;14.25;;;2.90;99.90;;;;;;5043243;28;20045;-80
2023/01/24 08:57:37;;;;;;;22.33;13.88;;;2.90;99.90;;;;;;5044960;28;20041;-80
2023/01/24 09:00:03;;;;;;;22.17;13.43;;;2.90;99.90;;;;;;5046165;28;20025;-80
2023/01/24 09:02:29;;;;;;;23.40;14.80;;;2.90;99.90;;;;;;5050858;28;20037;-80
2023/01/24 09:04:54;;;;;;;23.55;14.52;;;2.90;99.90;;;;;;5041422;28;20041;-80
2023/01/24 09:07:20;;;;;;;26.10;16.40;;;2.90;99.90;;;;;;5045797;28;20035;-80
2023/01/24 09:09:45;;;;;;;23.60;14.65;;;2.90;99.90;;;;;;5043554;28;20048;-80
2023/01/24 09:12:11;;;;;;;21.98;14.07;;;2.90;99.90;;;;;;5037860;28;20114;-79
2023/01/24 09:14:37;;;;;;;23.60;14.27;;;3.00;99.90;;;;;;5049728;28;20132;-80
2023/01/24 09:17:02;;;;;;;23.30;14.32;;;3.00;99.90;;;;;;5050967;28;20390;-80
2023/01/24 09:19:28;;;;;;;23.30;14.57;;;3.00;99.90;;;;;;5044574;28;20037;-80
2023/01/24 09:21:56;;;;;;;23.08;14.88;;;3.00;99.90;;;;;;5047556;28;20522;-80
2023/01/24 09:24:23;;;;;;;23.08;14.00;;;3.00;99.90;;;;;;5031095;28;20041;-80
2023/01/24 09:26:49;;;;;;;23.52;14.82;;;3.00;99.90;;;;;;5045094;28;20029;-80
2023/01/24 09:29:14;;;;;;;23.38;15.15;;;3.60;99.90;;;;;;5048997;28;20037;-80
2023/01/24 09:31:40;;;;;;;23.38;14.57;;;3.00;99.90;;;;;;5048907;28;20098;-80
2023/01/24 09:34:05;;;;;;;25.33;14.90;;;3.00;99.90;;;;;;5041386;28;20064;-80
2023/01/24 09:36:31;;;;;;;23.00;14.85;;;3.10;99.90;;;;;;5039983;28;20036;-80
2023/01/24 09:38:57;;;;;;;23.27;14.57;;;3.10;99.90;;;;;;5044593;28;20041;-80
2023/01/24 09:41:38;;;;;;;24.83;15.10;;;3.10;99.90;;;;;;5030545;28;20046;-80
2023/01/24 09:44:13;;;;;;;23.27;14.30;;;3.10;99.90;;;;;;5050416;28;20029;-80
2023/01/24 09:46:48;;;;;;;23.48;14.75;;;3.10;99.90;;;;;;5043136;28;20072;-80
2023/01/24 09:49:47;;;;;;;23.35;14.70;;;3.10;99.90;;;;;;5039578;28;20060;-80
2023/01/24 09:52:39;;;;;;;20.75;13.90;;;3.10;99.90;;;;;;5039901;28;20471;-80
2023/01/24 09:55:22;;;;;;;23.17;14.35;;;3.10;99.90;;;;;;5034981;28;20046;-80
2023/01/24 09:58:00;;;;;;;21.20;13.48;;;3.10;99.90;;;;;;5047385;28;20418;-80
2023/01/24 10:00:36;;;;;;;22.85;13.85;;;3.10;99.90;;;;;;5044836;28;20052;-80
2023/01/24 10:03:05;;;;;;;24.88;14.88;;;3.10;99.90;;;;;;5050116;28;20083;-79
2023/01/24 10:05:42;;;;;;;23.45;14.10;;;3.50;99.90;;;;;;5043941;28;20080;-80
2023/01/24 10:08:24;;;;;;;23.33;14.50;;;3.20;99.90;;;;;;5043194;28;20072;-80
2023/01/24 10:11:02;;;;;;;22.67;14.05;;;3.20;99.90;;;;;;5043941;28;20124;-80
2023/01/24 10:13:27;;;;;;;23.35;14.10;;;3.20;99.90;;;;;;5047222;28;20048;-80
2023/01/24 10:16:30;;;;;;;21.42;12.82;;;3.20;99.90;;;;;;5044029;28;20040;-80
2023/01/24 10:19:10;;;;;;;21.67;13.60;;;3.20;99.90;;;;;;5049191;28;20041;-80
2023/01/24 10:21:54;;;;;;;21.75;13.80;;;3.20;99.90;;;;;;5048696;28;20056;-80
2023/01/24 10:24:28;;;;;;;21.83;12.77;;;3.20;99.90;;;;;;5045471;28;20048;-80
2023/01/24 10:26:53;;;;;;;22.33;12.73;;;3.20;99.90;;;;;;5047948;28;20052;-80
2023/01/24 10:29:37;;;;;;;20.90;12.73;;;3.20;99.90;;;;;;5049745;28;20029;-80
2023/01/24 10:32:13;;;;;;;22.70;12.63;;;3.20;99.90;;;;;;5040204;28;20032;-80
2023/01/24 10:34:45;;;;;;;20.23;12.30;;;3.90;99.90;;;;;;5041456;28;20049;-80
2023/01/24 10:37:25;;;;;;;19.75;12.80;;;3.30;99.90;;;;;;5040063;28;20033;-80
2023/01/24 10:39:51;;;;;;;21.50;11.98;;;3.30;99.90;;;;;;5043221;28;20040;-80
2023/01/24 10:42:28;;;;;;;21.08;13.02;;;3.60;99.90;;;;;;5049033;28;20044;-80
2023/01/24 10:44:59;;;;;;;20.42;12.88;;;3.30;99.90;;;;;;5037061;28;20033;-80
2023/01/24 10:47:56;;;;;;;19.45;12.07;;;3.30;99.90;;;;;;5042092;28;20025;-80
2023/01/24 10:50:23;;;;;;;19.50;12.98;;;3.40;99.90;;;;;;5041693;28;20041;-80
2023/01/24 10:52:49;;;;;;;21.52;13.00;;;3.30;99.90;;;;;;5047055;28;20116;-80
2023/01/24 10:55:46;;;;;;;21.98;13.68;;;3.40;99.90;;;;;;5048728;28;20040;-80
2023/01/24 10:58:20;;;;;;;24.15;14.90;;;3.40;99.90;;;;;;5032002;28;20053;-80
2023/01/24 11:00:48;;;;;;;20.45;13.32;;;3.40;99.90;;;;;;5049058;28;20055;-80
2023/01/24 11:03:21;;;;;;;22.45;13.95;;;3.40;99.90;;;;;;5031400;28;20047;-80
2023/01/24 11:05:50;;;;;;;22.05;13.85;;;3.40;99.90;;;;;;5041066;28;20042;-80
2023/01/24 11:08:23;;;;;;;23.73;14.60;;;3.40;99.90;;;;;;5048417;28;20035;-80
2023/01/24 11:11:00;;;;;;;22.17;14.27;;;3.50;99.90;;;;;;5048970;28;20041;-80
2023/01/24 11:13:34;;;;;;;21.42;13.48;;;3.50;99.90;;;;;;5042727;28;20048;-80
2023/01/24 11:16:03;;;;;;;24.90;13.80;;;3.50;99.90;;;;;;5047695;28;20048;-80
2023/01/24 11:18:30;;;;;;;24.40;14.45;;;3.50;99.90;;;;;;5038463;28;20045;-80
2023/01/24 11:21:06;;;;;;;21.40;13.95;;;3.50;99.90;;;;;;5043414;28;20503;-80
2023/01/24 11:23:32;;;;;;;21.23;13.60;;;3.60;99.90;;;;;;5046450;28;20110;-80
2023/01/24 11:26:01;;;;;;;23.98;14.25;;;3.60;99.90;;;;;;5044192;28;20484;-80
2023/01/24 11:28:29;;;;;;;24.48;14.93;;;3.60;99.90;;;;;;5035731;28;20504;-80
2023/01/24 11:30:58;;;;;;;24.38;14.95;;;3.50;99.90;;;;;;5045133;28;20479;-80
2023/01/24 11:33:34;;;;;;;24.10;14.68;;;3.60;99.90;;;;;;5040092;28;20044;-80
2023/01/24 11:36:06;;;;;;;24.60;15.10;;;3.50;99.90;;;;;;5040450;28;20040;-80
2023/01/24 11:38:38;;;;;;;23.08;15.60;;;3.50;99.90;;;;;;5037532;28;20494;-80
2023/01/24 11:41:20;;;;;;;20.98;14.15;;;3.60;99.90;;;;;;5047179;28;20381;-80
2023/01/24 11:44:17;;;;;;;23.05;14.70;;;3.50;99.90;;;;;;5052785;28;20036;-80
2023/01/24 11:47:11;;;;;;;25.50;15.23;;;3.50;99.90;;;;;;5041756;28;20505;-80
2023/01/24 11:49:48;;;;;;;22.58;14.50;;;3.60;99.90;;;;;;5051443;28;20040;-80
2023/01/24 11:53:04;;;;;;;24.60;15.02;;;3.60;99.90;;;;;;5051428;28;20111;-80
2023/01/24 11:55:46;;;;;;;22.70;14.45;;;3.60;99.90;;;;;;5009977;28;20149;-80
2023/01/24 11:58:36;;;;;;;22.60;14.15;;;3.60;99.90;;;;;;5009134;28;20068;-80
2023/01/24 12:01:25;;;;;;;22.27;13.88;;;3.60;99.90;;;;;;4991872;28;20637;-80
2023/01/24 12:04:16;;;;;;;21.13;13.20;;;3.60;99.90;;;;;;4989866;28;20081;-80
2023/01/24 12:07:11;;;;;;;22.10;13.32;;;3.60;99.90;;;;;;5009899;28;20081;-80
2023/01/24 12:10:16;;;;;;;21.83;12.88;;;3.60;99.90;;;;;;5007717;28;20048;-80
2023/01/24 12:12:49;;;;;;;23.77;13.57;;;3.60;99.90;;;;;;5009871;28;20065;-80
2023/01/24 12:15:38;;;;;;;21.58;13.32;;;3.60;99.90;;;;;;4992890;28;20038;-80
2023/01/24 12:18:13;;;;;;;21.13;13.18;;;3.60;99.90;;;;;;5003971;28;20073;-81
2023/01/24 12:20:58;;;;;;;19.15;12.45;;;3.90;99.90;;;;;;4992724;28;20805;-80
2023/01/24 12:23:42;;;;;;;21.23;12.88;;;3.60;99.90;;;;;;5006416;28;20054;-80
2023/01/24 12:26:22;;;;;;;23.42;14.52;;;3.60;99.90;;;;;;5006688;28;20043;-80
2023/01/24 12:29:15;;;;;;;21.23;13.02;;;3.60;99.90;;;;;;5039957;28;20041;-79
2023/01/24 12:31:48;;;;;;;21.45;13.23;;;3.60;99.90;;;;;;5048052;28;20073;-80
2023/01/24 12:34:32;;;;;;;21.85;14.20;;;3.60;99.90;;;;;;5043318;28;20906;-79
2023/01/24 12:37:04;;;;;;;22.27;14.15;;;3.60;99.90;;;;;;5051314;28;20048;-79
2023/01/24 12:39:42;;;;;;;21.65;13.55;;;3.60;99.90;;;;;;5045236;28;20171;-80
2023/01/24 12:42:34;;;;;;;22.17;13.57;;;3.60;99.90;;;;;;5048708;28;20170;-80
2023/01/24 12:45:04;;;;;;;22.85;13.70;;;3.60;99.90;;;;;;5041610;28;20037;-80
2023/01/24 12:47:51;;;;;;;21.08;12.73;;;3.60;99.90;;;;;;5043567;28;20041;-79
2023/01/24 12:50:40;;;;;;;20.98;13.15;;;3.60;99.90;;;;;;5045132;28;20041;-80
2023/01/24 12:53:21;;;;;;;23.10;13.68;;;3.60;99.90;;;;;;5045645;28;20491;-80
2023/01/24 12:56:11;;;;;;;24.00;14.30;;;3.60;99.90;;;;;;5046673;28;20037;-80
2023/01/24 12:58:40;;;;;;;23.08;13.95;;;3.70;99.90;;;;;;5037897;28;20041;-80
2023/01/24 13:01:43;;;;;;;22.42;13.55;;;3.60;99.90;;;;;;5047543;28;20481;-79
2023/01/24 13:04:15;;;;;;;25.38;14.68;;;3.60;99.90;;;;;;5000107;28;20033;-79
2023/01/24 13:07:14;;;;;;;25.52;14.00;;;3.60;99.90;;;;;;4994531;28;20454;-79
2023/01/24 13:09:54;;;;;;;24.75;15.80;;;3.60;99.90;;;;;;4983819;28;20047;-79
2023/01/24 13:12:24;;;;;;;24.52;15.63;;;3.60;99.90;;;;;;5005116;28;20195;-79
2023/01/24 13:14:53;;;;;;;23.58;14.32;;;3.60;99.90;;;;;;4995409;28;20042;-79
2023/01/24 13:17:24;;;;;;;23.52;14.30;;;3.60;99.90;;;;;;4972844;28;20146;-79
2023/01/24 13:20:20;;;;;;;20.92;13.88;;;3.60;99.90;;;;;;4993857;28;20670;-80
2023/01/24 13:23:01;;;;;;;21.90;13.40;;;3.60;99.90;;;;;;4991663;28;20061;-79
2023/01/24 13:25:33;;;;;;;22.35;13.63;;;3.50;99.90;;;;;;4988113;28;20058;-79
2023/01/24 13:28:32;;;;;;;22.23;14.35;;;3.50;99.90;;;;;;4993192;28;20110;-79
2023/01/24 13:31:50;;;;;;;22.75;13.18;;;3.50;99.90;;;;;;4988041;28;20093;-78
2023/01/24 13:34:18;;;;;;;23.63;12.60;;;3.50;99.90;;;;;;4991240;28;20065;-79